Southam, United Kingdom
Current Conditions -  °F | °C
As of 5:50 PM on Monday 24 Nov 2014 (Local Time) from EGBE Reporting Station
Light Fog Light Fog  
Wind Chill: 39°   Ceiling: Unl
Heat Index: 39°   Visibility: 6mi
Dew Point: 37°   Wind: 1mph
Humidity: 93%   Direction: 240°WSW
Pressure: 30.33"   Gusts: NA
Location:  52.25°N, 1.39°W
Report Text: EGBE 241750Z 24001KT 9999 BCFG NSC 04/03 Q1027
Loading
Personal Weather Stations






























Interactive Weather Map New forecast layout! Learn more

10-Day Weather Forecast

Advertisements
Track Severe Weather on mobile